Time;durP1;ratioP1;P1;durP2;ratioP2;P2;SDS_P1;SDS_P2;PMS_P1;PMS_P2;Temp;Humidity;BMP_temperature;BMP_pressure;BME280_temperature;BME280_humidity;BME280_pressure;Samples;Min_cycle;Max_cycle;Signal;HPM_P1;HPM_P2
2021/05/25 00:01:59;;;;;;;7.33;1.17;;;;;;;5.47;100.00;93719.53;5077700;28;20653;-76
2021/05/25 00:04:25;;;;;;;6.13;1.63;;;;;;;5.53;100.00;93716.25;5075550;28;20237;-76
2021/05/25 00:06:52;;;;;;;2.07;1.00;;;;;;;5.60;100.00;93722.38;5075392;28;20195;-76
2021/05/25 00:09:19;;;;;;;3.37;1.10;;;;;;;5.62;100.00;93725.59;5075769;28;20210;-76
2021/05/25 00:11:45;;;;;;;3.83;1.00;;;;;;;5.74;100.00;93718.22;5075761;28;20210;-76
2021/05/25 00:14:11;;;;;;;4.17;0.93;;;;;;;5.73;100.00;93721.81;5075522;28;20234;-76
2021/05/25 00:16:37;;;;;;;3.70;1.00;;;;;;;5.77;100.00;93714.50;5075327;28;20199;-75
2021/05/25 00:19:04;;;;;;;4.47;1.17;;;;;;;5.71;100.00;93697.84;5075313;28;20198;-76
2021/05/25 00:21:30;;;;;;;4.00;1.23;;;;;;;5.68;100.00;93695.59;5075213;28;20199;-76
2021/05/25 00:23:56;;;;;;;3.83;1.00;;;;;;;5.68;100.00;93693.81;5075106;28;20241;-76
2021/05/25 00:26:22;;;;;;;1.83;0.90;;;;;;;5.66;100.00;93706.16;5075361;28;20302;-75
2021/05/25 00:28:48;;;;;;;1.73;0.80;;;;;;;5.62;100.00;93701.47;5075369;28;20199;-76
2021/05/25 00:31:14;;;;;;;5.28;1.10;;;;;;;5.67;100.00;93704.34;5074664;28;20439;-75
2021/05/25 00:33:40;;;;;;;11.67;1.40;;;;;;;5.70;100.00;93712.59;5075262;28;20195;-76
2021/05/25 00:36:09;;;;;;;5.63;1.13;;;;;;;5.65;100.00;93714.09;5075138;28;20205;-76
2021/05/25 00:38:35;;;;;;;3.77;1.03;;;;;;;5.57;100.00;93707.97;5075157;28;20210;-76
2021/05/25 00:41:01;;;;;;;3.40;0.90;;;;;;;5.47;100.00;93707.38;5075179;28;20195;-75
2021/05/25 00:43:28;;;;;;;1.53;0.90;;;;;;;5.43;100.00;93705.28;5074854;28;20233;-76
2021/05/25 00:45:54;;;;;;;3.60;1.17;;;;;;;5.40;100.00;93709.03;5074726;28;20681;-76
2021/05/25 00:48:20;;;;;;;7.30;1.40;;;;;;;5.34;100.00;93720.06;5074827;28;20665;-76
2021/05/25 00:50:47;;;;;;;1.47;1.00;;;;;;;5.25;100.00;93716.72;5074633;28;20199;-76
2021/05/25 00:53:14;;;;;;;4.37;1.10;;;;;;;5.13;100.00;93702.53;5074845;28;20195;-77
2021/05/25 00:55:41;;;;;;;1.00;0.90;;;;;;;5.26;100.00;93710.59;5074808;28;20206;-76
2021/05/25 00:58:09;;;;;;;4.67;0.97;;;;;;;5.27;100.00;93712.19;5073974;28;20194;-78
2021/05/25 01:00:38;;;;;;;1.47;0.90;;;;;;;5.37;100.00;93711.97;5074587;28;20199;-77
2021/05/25 01:03:04;;;;;;;2.83;0.80;;;;;;;5.38;100.00;93711.81;5074292;28;20231;-75
2021/05/25 01:05:31;;;;;;;4.63;0.90;;;;;;;5.48;100.00;93714.19;5074419;28;20203;-75
2021/05/25 01:07:58;;;;;;;2.57;0.60;;;;;;;5.45;100.00;93709.34;5074503;28;20213;-75
2021/05/25 01:10:28;;;;;;;5.43;0.90;;;;;;;5.36;100.00;93705.16;5074268;28;20602;-76
2021/05/25 01:12:56;;;;;;;1.43;0.70;;;;;;;5.36;100.00;93705.16;5074333;28;20226;-75
2021/05/25 01:15:23;;;;;;;5.47;0.90;;;;;;;5.24;100.00;93703.94;5073079;28;20460;-76
2021/05/25 01:17:52;;;;;;;4.00;1.30;;;;;;;5.15;100.00;93716.94;5074085;28;20213;-75
2021/05/25 01:20:20;;;;;;;1.97;1.00;;;;;;;5.16;100.00;93710.78;5074287;28;20203;-77
2021/05/25 01:22:46;;;;;;;2.37;0.83;;;;;;;5.19;100.00;93714.81;5074122;28;20231;-77
2021/05/25 01:25:15;;;;;;;4.70;1.00;;;;;;;5.21;100.00;93717.22;5074011;28;20293;-76
2021/05/25 01:27:42;;;;;;;7.27;1.00;;;;;;;5.22;100.00;93713.69;5073845;28;20689;-77
2021/05/25 01:30:10;;;;;;;1.07;0.97;;;;;;;5.23;100.00;93710.09;5073924;28;20206;-75
2021/05/25 01:32:36;;;;;;;2.73;0.80;;;;;;;5.19;100.00;93705.25;5074037;28;20198;-77
2021/05/25 01:35:04;;;;;;;7.17;0.90;;;;;;;5.08;100.00;93715.16;5074024;28;20210;-74
2021/05/25 01:37:30;;;;;;;2.40;0.87;;;;;;;5.15;100.00;93729.88;5073813;28;20662;-76
2021/05/25 01:39:56;;;;;;;3.80;0.93;;;;;;;5.05;100.00;93716.31;5073797;28;20194;-77
2021/05/25 01:42:31;;;;;;;2.37;0.90;;;;;;;4.99;100.00;93719.56;5073686;28;20205;-76
2021/05/25 01:44:57;;;;;;;5.67;1.40;;;;;;;4.95;100.00;93713.94;5073584;28;20226;-75
2021/05/25 01:47:23;;;;;;;2.60;0.90;;;;;;;5.06;100.00;93710.16;5073461;28;20674;-76
2021/05/25 01:49:49;;;;;;;3.00;1.00;;;;;;;4.93;100.00;93715.06;5073508;28;20199;-76
2021/05/25 01:52:17;;;;;;;1.67;0.90;;;;;;;4.91;100.00;93717.03;5073578;28;20203;-76
2021/05/25 01:54:43;;;;;;;2.70;0.97;;;;;;;4.89;100.00;93717.19;5073454;28;20207;-76
2021/05/25 01:57:10;;;;;;;3.78;1.20;;;;;;;4.92;100.00;93716.84;5072686;28;20445;-77
2021/05/25 01:59:36;;;;;;;7.73;1.30;;;;;;;4.78;100.00;93713.19;5073519;28;20198;-76
2021/05/25 02:02:02;;;;;;;3.93;1.07;;;;;;;4.82;100.00;93711.88;5073452;28;20226;-76
2021/05/25 02:04:28;;;;;;;7.47;1.40;;;;;;;4.86;100.00;93712.34;5073392;28;20276;-76
2021/05/25 02:06:54;;;;;;;4.03;1.10;;;;;;;4.91;100.00;93710.09;5075691;28;20199;-76
2021/05/25 02:09:20;;;;;;;3.40;1.10;;;;;;;5.05;100.00;93705.19;5073283;28;20210;-76
2021/05/25 02:11:46;;;;;;;5.73;0.90;;;;;;;5.11;100.00;93713.06;5073047;28;20646;-77
2021/05/25 02:14:13;;;;;;;3.70;1.10;;;;;;;5.29;100.00;93709.41;5072994;28;20206;-77
2021/05/25 02:16:39;;;;;;;7.00;1.40;;;;;;;5.42;100.00;93714.84;5073198;28;20195;-77
2021/05/25 02:19:05;;;;;;;9.23;1.00;;;;;;;5.54;100.00;93723.84;5073107;28;20198;-76
2021/05/25 02:21:31;;;;;;;6.57;0.90;;;;;;;5.59;100.00;93730.31;5073049;28;20198;-76
2021/05/25 02:23:57;;;;;;;2.03;0.93;;;;;;;5.44;100.00;93725.84;5072887;28;20245;-77
2021/05/25 02:26:23;;;;;;;1.60;1.00;;;;;;;5.35;100.00;93725.09;5072901;28;20211;-77
2021/05/25 02:28:49;;;;;;;3.93;0.87;;;;;;;5.22;100.00;93724.03;5073004;28;20234;-77
2021/05/25 02:31:16;;;;;;;3.77;0.90;;;;;;;5.15;100.00;93729.88;5072886;28;20206;-77
2021/05/25 02:33:42;;;;;;;3.53;0.90;;;;;;;5.18;100.00;93721.78;5073071;28;20202;-75
2021/05/25 02:36:08;;;;;;;3.87;1.47;;;;;;;5.22;100.00;93726.63;5072850;28;20199;-76
2021/05/25 02:38:34;;;;;;;8.20;1.10;;;;;;;5.11;100.00;93728.59;5072836;28;20203;-77
2021/05/25 02:41:01;;;;;;;6.07;1.00;;;;;;;5.00;100.00;93731.56;5072606;28;20531;-76
2021/05/25 02:43:30;;;;;;;3.77;0.83;;;;;;;5.07;100.00;93732.47;5072970;28;20653;-77
2021/05/25 02:45:56;;;;;;;7.80;1.23;;;;;;;5.21;100.00;93735.34;5072897;28;20199;-77
2021/05/25 02:48:24;;;;;;;6.37;1.13;;;;;;;5.05;100.00;93739.63;5072600;28;20199;-77
2021/05/25 02:50:51;;;;;;;2.43;0.80;;;;;;;5.13;100.00;93737.00;5072726;28;20647;-76
2021/05/25 02:53:17;;;;;;;7.60;1.03;;;;;;;5.05;100.00;93734.44;5072732;28;20240;-76
2021/05/25 02:55:44;;;;;;;3.67;0.77;;;;;;;5.13;100.00;93733.59;5072518;28;20279;-77
2021/05/25 02:58:11;;;;;;;1.90;0.77;;;;;;;4.98;100.00;93738.69;5072771;28;20277;-77
2021/05/25 03:00:39;;;;;;;3.63;1.07;;;;;;;4.95;100.00;93731.25;5072676;28;20202;-76
2021/05/25 03:03:06;;;;;;;3.27;0.80;;;;;;;4.90;100.00;93726.56;5072367;28;20284;-76
2021/05/25 03:05:34;;;;;;;2.43;0.87;;;;;;;4.85;100.00;93728.06;5072734;28;20260;-76
2021/05/25 03:08:01;;;;;;;7.40;1.30;;;;;;;4.82;100.00;93735.16;5072726;28;20198;-76
2021/05/25 03:10:29;;;;;;;7.50;1.20;;;;;;;5.05;100.00;93729.25;5072536;28;20642;-78
2021/05/25 03:12:55;;;;;;;3.47;1.10;;;;;;;5.02;100.00;93734.78;5072599;28;20206;-79
2021/05/25 03:15:23;;;;;;;3.23;1.03;;;;;;;4.93;100.00;93721.06;5072730;28;20202;-78
2021/05/25 03:17:49;;;;;;;11.50;1.97;;;;;;;4.84;100.00;93722.06;5072551;28;20202;-77
2021/05/25 03:20:16;;;;;;;2.73;1.00;;;;;;;4.96;100.00;93725.09;5072453;28;20199;-76
2021/05/25 03:22:43;;;;;;;5.50;0.97;;;;;;;4.99;100.00;93729.94;5075964;28;20711;-77
2021/05/25 03:25:12;;;;;;;6.73;1.10;;;;;;;5.03;100.00;93731.22;5076741;28;20209;-77
2021/05/25 03:27:42;;;;;;;5.23;1.10;;;;;;;5.24;100.00;93732.41;5076486;28;20201;-77
2021/05/25 03:30:11;;;;;;;4.80;1.10;;;;;;;5.45;100.00;93735.22;5076416;28;20199;-77
2021/05/25 03:32:38;;;;;;;1.93;0.77;;;;;;;5.59;100.00;93751.03;5076127;28;20218;-77
2021/05/25 03:35:06;;;;;;;4.73;1.40;;;;;;;5.61;100.00;93743.88;5076069;28;20238;-77
2021/05/25 03:37:32;;;;;;;2.90;0.90;;;;;;;5.52;100.00;93756.88;5076354;28;20205;-78
2021/05/25 03:39:59;;;;;;;4.70;0.93;;;;;;;5.45;100.00;93761.13;5076002;28;20294;-78
2021/05/25 03:42:25;;;;;;;1.87;0.90;;;;;;;5.34;100.00;93745.97;5075714;28;20726;-77
2021/05/25 03:44:51;;;;;;;1.93;1.07;;;;;;;5.18;100.00;93758.00;5075870;28;20240;-77
2021/05/25 03:47:20;;;;;;;6.07;1.00;;;;;;;5.03;100.00;93751.09;5075940;28;20199;-77
2021/05/25 03:49:46;;;;;;;6.43;0.90;;;;;;;4.94;100.00;93750.31;5075711;28;20553;-76
2021/05/25 03:52:12;;;;;;;1.40;0.80;;;;;;;4.88;100.00;93758.72;5076059;28;20561;-76
2021/05/25 03:54:44;;;;;;;4.53;1.03;;;;;;;4.88;100.00;93774.25;5076116;28;20294;-77
2021/05/25 03:57:13;;;;;;;2.53;0.83;;;;;;;4.80;100.00;93757.00;5075863;28;20203;-77
2021/05/25 03:59:39;;;;;;;1.67;0.80;;;;;;;4.74;100.00;93768.00;5075887;28;20199;-76
2021/05/25 04:02:05;;;;;;;2.30;0.70;;;;;;;4.71;100.00;93784.63;5075806;28;20649;-76
2021/05/25 04:04:32;;;;;;;1.00;0.57;;;;;;;4.72;100.00;93788.84;5075531;28;20230;-76
2021/05/25 04:06:58;;;;;;;2.70;0.80;;;;;;;4.74;100.00;93771.38;5075719;28;20581;-77
2021/05/25 04:09:24;;;;;;;1.60;0.90;;;;;;;4.72;100.00;93785.47;5075715;28;20259;-77
2021/05/25 04:11:50;;;;;;;2.97;0.80;;;;;;;4.78;100.00;93789.94;5075579;28;20653;-76
2021/05/25 04:14:17;;;;;;;2.03;0.60;;;;;;;4.76;100.00;93790.13;5075956;28;20245;-75
2021/05/25 04:16:43;;;;;;;3.83;0.93;;;;;;;4.70;100.00;93793.38;5076901;28;20195;-76
2021/05/25 04:19:09;;;;;;;3.83;0.80;;;;;;;4.66;100.00;93792.06;5075167;28;20206;-76
2021/05/25 04:21:35;;;;;;;2.07;0.90;;;;;;;4.65;100.00;93790.47;5075680;28;20199;-77
2021/05/25 04:24:01;;;;;;;3.00;0.80;;;;;;;4.69;100.00;93796.91;5075293;28;20701;-76
2021/05/25 04:26:27;;;;;;;2.07;0.90;;;;;;;4.94;100.00;93795.09;5075297;28;20294;-76
2021/05/25 04:28:53;;;;;;;1.80;0.77;;;;;;;4.95;100.00;93803.69;5075299;28;20658;-76
2021/05/25 04:31:20;;;;;;;2.10;0.70;;;;;;;4.92;100.00;93811.75;5075165;28;20199;-76
2021/05/25 04:33:46;;;;;;;1.57;0.70;;;;;;;5.02;100.00;93812.38;5073852;28;20202;-77
2021/05/25 04:36:12;;;;;;;5.57;0.80;;;;;;;5.05;100.00;93816.44;5075661;28;20206;-76
2021/05/25 04:38:38;;;;;;;2.27;0.70;;;;;;;5.12;100.00;93825.94;5075033;28;20565;-77
2021/05/25 04:41:04;;;;;;;1.10;0.70;;;;;;;5.13;100.00;93824.16;5075061;28;20199;-76
2021/05/25 04:43:30;;;;;;;2.27;0.67;;;;;;;5.08;100.00;93816.06;5075025;28;20684;-77
2021/05/25 04:45:56;;;;;;;1.40;0.90;;;;;;;5.03;100.00;93813.19;5074801;28;20209;-77
2021/05/25 04:48:23;;;;;;;3.23;1.00;;;;;;;5.07;100.00;93812.69;5074843;28;20202;-76
2021/05/25 04:50:49;;;;;;;6.47;0.83;;;;;;;5.19;100.00;93813.16;5074899;28;20201;-78
2021/05/25 04:53:15;;;;;;;4.63;0.97;;;;;;;5.42;100.00;93815.81;5074843;28;20206;-77
2021/05/25 04:55:41;;;;;;;2.83;0.87;;;;;;;5.56;100.00;93815.13;5074735;28;20207;-77
2021/05/25 04:58:07;;;;;;;2.37;0.87;;;;;;;5.56;100.00;93820.31;5074701;28;20194;-77
2021/05/25 05:00:33;;;;;;;3.80;0.83;;;;;;;5.54;100.00;93813.66;5074497;28;20718;-76
2021/05/25 05:02:59;;;;;;;2.97;0.87;;;;;;;5.64;100.00;93823.81;5074400;28;20223;-76
2021/05/25 05:05:26;;;;;;;0.70;0.63;;;;;;;5.64;100.00;93811.66;5074494;28;20195;-76
2021/05/25 05:07:53;;;;;;;0.77;0.60;;;;;;;5.71;100.00;93827.34;5074571;28;20209;-76
2021/05/25 05:10:20;;;;;;;3.53;0.93;;;;;;;5.78;99.98;93830.88;5074544;28;20199;-77
2021/05/25 05:12:46;;;;;;;4.67;0.67;;;;;;;5.80;100.00;93821.16;5074324;28;20195;-77
2021/05/25 05:15:13;;;;;;;6.03;0.83;;;;;;;5.93;100.00;93831.78;5074172;28;20279;-77
2021/05/25 05:17:40;;;;;;;2.07;0.67;;;;;;;5.93;100.00;93830.97;5074453;28;20194;-78
2021/05/25 05:20:07;;;;;;;4.00;1.00;;;;;;;5.92;100.00;93830.16;5074053;28;20229;-76
2021/05/25 05:22:35;;;;;;;2.80;0.80;;;;;;;5.90;100.00;93821.75;5074111;28;20230;-77
2021/05/25 05:25:01;;;;;;;2.40;0.97;;;;;;;5.84;100.00;93831.97;5074379;28;20222;-77
2021/05/25 05:27:27;;;;;;;8.13;1.00;;;;;;;5.96;99.71;93825.47;5074044;28;20649;-77
2021/05/25 05:29:53;;;;;;;2.58;0.80;;;;;;;5.93;99.64;93831.78;5072799;28;20430;-75
2021/05/25 05:32:19;;;;;;;2.03;0.90;;;;;;;5.92;99.03;93840.50;5074169;28;20268;-75
2021/05/25 05:34:45;;;;;;;3.00;0.87;;;;;;;5.99;100.00;93839.88;5074152;28;20203;-76
2021/05/25 05:37:11;;;;;;;5.93;0.90;;;;;;;6.01;100.00;93848.28;5074102;28;20294;-75
2021/05/25 05:39:39;;;;;;;3.47;0.80;;;;;;;5.93;100.00;93857.69;5073888;28;20206;-76
2021/05/25 05:42:06;;;;;;;6.23;0.90;;;;;;;5.81;100.00;93851.28;5073935;28;20236;-76
2021/05/25 05:44:32;;;;;;;2.83;1.07;;;;;;;5.81;100.00;93848.69;5073379;28;20230;-76
2021/05/25 05:46:59;;;;;;;1.63;0.90;;;;;;;5.89;100.00;93848.63;5073866;28;20203;-76
2021/05/25 05:49:24;;;;;;;3.50;0.83;;;;;;;5.95;100.00;93833.41;5073898;28;20199;-77
2021/05/25 05:51:51;;;;;;;6.20;1.00;;;;;;;6.04;100.00;93861.69;5073625;28;20280;-76
2021/05/25 05:54:17;;;;;;;6.03;1.00;;;;;;;6.13;99.96;93846.09;5073716;28;20562;-76
2021/05/25 05:56:47;;;;;;;3.80;0.90;;;;;;;6.21;100.00;93849.47;5073645;28;20202;-76
2021/05/25 05:59:13;;;;;;;1.57;0.90;;;;;;;6.23;100.00;93854.47;5073514;28;20199;-76
2021/05/25 06:01:39;;;;;;;2.33;0.80;;;;;;;6.19;99.41;93856.59;5073905;28;20672;-76
2021/05/25 06:04:05;;;;;;;1.97;0.90;;;;;;;6.17;99.14;93868.91;5073331;28;20246;-74
2021/05/25 06:06:31;;;;;;;3.90;0.90;;;;;;;6.11;99.49;93874.78;5073533;28;20202;-75
2021/05/25 06:08:57;;;;;;;2.83;0.80;;;;;;;6.17;96.76;93879.28;5073308;28;20199;-76
2021/05/25 06:11:23;;;;;;;2.07;0.60;;;;;;;6.09;97.93;93871.56;5073378;28;20198;-76
2021/05/25 06:13:50;;;;;;;3.23;0.80;;;;;;;6.14;95.94;93861.47;5073266;28;20290;-75
2021/05/25 06:16:16;;;;;;;2.47;0.83;;;;;;;6.35;96.23;93871.25;5073398;28;20199;-76
2021/05/25 06:18:42;;;;;;;3.10;1.10;;;;;;;6.43;95.39;93873.78;5073440;28;20613;-76
2021/05/25 06:21:08;;;;;;;6.43;0.87;;;;;;;6.35;95.66;93860.88;5073397;28;20277;-76
2021/05/25 06:23:35;;;;;;;2.27;0.87;;;;;;;6.40;95.11;93873.31;5075555;28;20264;-75
2021/05/25 06:26:02;;;;;;;2.67;0.73;;;;;;;6.63;92.22;93868.16;5073168;28;20294;-76
2021/05/25 06:28:29;;;;;;;2.20;0.60;;;;;;;6.91;90.94;93878.78;5072948;28;20199;-76
2021/05/25 06:30:55;;;;;;;2.00;0.80;;;;;;;7.00;88.74;93869.94;5073102;28;20211;-76
2021/05/25 06:33:21;;;;;;;3.93;0.90;;;;;;;7.03;89.91;93868.78;5072958;28;20199;-75
2021/05/25 06:35:49;;;;;;;6.30;0.80;;;;;;;7.09;90.90;93877.66;5073167;28;20241;-76
2021/05/25 06:38:15;;;;;;;5.33;0.90;;;;;;;7.29;87.61;93880.53;5073004;28;20374;-76
2021/05/25 06:40:41;;;;;;;5.13;1.13;;;;;;;7.21;88.30;93878.81;5072883;28;20215;-76
2021/05/25 06:43:07;;;;;;;2.20;0.97;;;;;;;7.23;88.54;93887.25;5073003;28;20222;-77
2021/05/25 06:45:33;;;;;;;3.80;0.90;;;;;;;7.23;87.33;93876.88;5073062;28;20214;-77
2021/05/25 06:47:59;;;;;;;7.30;0.90;;;;;;;7.30;88.44;93884.75;5073048;28;20209;-76
2021/05/25 06:50:26;;;;;;;5.93;1.10;;;;;;;7.15;87.23;93882.16;5072652;28;20199;-77
2021/05/25 06:52:52;;;;;;;4.63;0.80;;;;;;;7.12;85.49;93883.28;5072868;28;20202;-77
2021/05/25 06:55:18;;;;;;;1.73;0.80;;;;;;;7.23;84.23;93882.06;5071924;28;20290;-77
2021/05/25 06:57:44;;;;;;;4.57;1.03;;;;;;;7.41;85.81;93892.91;5073249;28;20267;-77
2021/05/25 07:00:13;;;;;;;3.47;0.87;;;;;;;7.47;84.24;93906.19;5073006;28;20198;-74
2021/05/25 07:02:39;;;;;;;5.37;1.10;;;;;;;7.54;81.32;93889.72;5072952;28;20214;-76
2021/05/25 07:05:08;;;;;;;3.30;0.90;;;;;;;7.35;82.01;93892.81;5072683;28;20213;-78
2021/05/25 07:07:34;;;;;;;4.27;1.10;;;;;;;7.31;81.84;93897.56;5072602;28;20289;-76
2021/05/25 07:10:00;;;;;;;2.57;1.00;;;;;;;7.46;80.17;93909.75;5072762;28;20562;-76
2021/05/25 07:12:27;;;;;;;3.40;1.10;;;;;;;7.65;84.28;93909.22;5072770;28;20195;-77
2021/05/25 07:14:55;;;;;;;3.40;0.73;;;;;;;7.88;81.85;93898.75;5072747;28;20206;-76
2021/05/25 07:17:21;;;;;;;6.20;0.80;;;;;;;7.81;79.53;93912.63;5072625;28;20209;-75
2021/05/25 07:19:47;;;;;;;6.73;1.07;;;;;;;7.64;80.33;93915.41;5072802;28;20242;-75
2021/05/25 07:22:15;;;;;;;5.77;0.93;;;;;;;7.49;79.14;93909.41;5072274;28;20264;-77
2021/05/25 07:24:41;;;;;;;3.70;1.00;;;;;;;7.57;80.28;93907.50;5072489;28;20234;-77
2021/05/25 07:27:08;;;;;;;4.20;1.10;;;;;;;7.93;81.01;93900.81;5071432;28;20439;-77
2021/05/25 07:29:34;;;;;;;4.40;0.90;;;;;;;8.21;76.82;93900.94;5072713;28;20654;-75
2021/05/25 07:32:00;;;;;;;7.27;1.00;;;;;;;8.37;75.53;93907.72;5072519;28;20210;-76
2021/05/25 07:34:26;;;;;;;2.00;0.60;;;;;;;8.27;76.07;93902.00;5072516;28;20295;-76
2021/05/25 07:36:52;;;;;;;4.22;0.93;;;;;;;8.44;74.99;93910.41;5071705;28;20438;-77
2021/05/25 07:39:19;;;;;;;3.63;0.87;;;;;;;8.56;75.46;93900.31;5072581;28;20268;-77
2021/05/25 07:41:46;;;;;;;2.77;0.80;;;;;;;8.18;73.78;93909.09;5072546;28;20213;-77
2021/05/25 07:44:12;;;;;;;4.87;0.90;;;;;;;8.36;77.92;93919.13;5072391;28;20365;-77
2021/05/25 07:46:38;;;;;;;6.47;1.27;;;;;;;8.78;77.93;93893.34;5072278;28;20199;-77
2021/05/25 07:49:04;;;;;;;9.40;1.63;;;;;;;8.77;73.64;93908.16;5072322;28;20222;-77
2021/05/25 07:51:30;;;;;;;5.27;0.90;;;;;;;9.00;72.94;93899.34;5072355;28;20195;-77
2021/05/25 07:53:57;;;;;;;6.27;0.90;;;;;;;8.55;71.43;93909.94;5072168;28;20657;-77
2021/05/25 07:56:24;;;;;;;4.53;1.27;;;;;;;8.42;73.46;93915.78;5072368;28;20203;-77
2021/05/25 07:58:50;;;;;;;2.10;1.00;;;;;;;8.41;72.05;93914.19;5072222;28;20195;-76
2021/05/25 08:01:16;;;;;;;5.47;1.10;;;;;;;8.64;73.37;93908.84;5072265;28;20286;-76
2021/05/25 08:03:42;;;;;;;1.97;0.80;;;;;;;8.74;71.31;93900.69;5072145;28;20222;-77
2021/05/25 08:06:09;;;;;;;3.27;0.83;;;;;;;8.96;72.33;93921.53;5072116;28;20206;-77
2021/05/25 08:08:35;;;;;;;3.00;0.83;;;;;;;9.06;71.18;93907.22;5075426;28;20373;-76
2021/05/25 08:11:01;;;;;;;2.87;0.73;;;;;;;8.85;71.45;93920.25;5075767;28;20214;-75
2021/05/25 08:13:28;;;;;;;6.17;1.00;;;;;;;8.98;72.02;93920.38;5075686;28;20203;-77
2021/05/25 08:15:55;;;;;;;2.13;0.70;;;;;;;9.25;69.92;93912.78;5075666;28;20195;-76
2021/05/25 08:18:36;;;;;;;3.87;0.90;;;;;;;9.38;70.82;93914.69;5075471;28;20195;-77
2021/05/25 08:21:02;;;;;;;4.93;0.97;;;;;;;9.59;70.30;93940.69;5075712;28;20259;-78
2021/05/25 08:23:28;;;;;;;3.97;0.80;;;;;;;9.19;69.95;93943.00;5075280;28;20318;-77
2021/05/25 08:25:54;;;;;;;2.20;0.70;;;;;;;9.08;71.49;93956.50;5075550;28;20291;-77
2021/05/25 08:28:20;;;;;;;2.57;0.90;;;;;;;8.79;69.28;93921.81;5075302;28;20625;-76
2021/05/25 08:30:47;;;;;;;9.13;1.30;;;;;;;9.34;72.33;93939.47;5077874;28;20222;-76
2021/05/25 08:33:15;;;;;;;3.37;0.83;;;;;;;10.05;71.32;93955.00;5075121;28;20252;-76
2021/05/25 08:35:42;;;;;;;0.83;0.70;;;;;;;9.90;71.88;93939.47;5075321;28;20205;-77
2021/05/25 08:38:09;;;;;;;2.13;0.97;;;;;;;10.08;68.10;93948.59;5075314;28;20660;-77
2021/05/25 08:40:37;;;;;;;1.67;0.77;;;;;;;9.82;69.27;93955.25;5075143;28;20557;-77
2021/05/25 08:43:04;;;;;;;4.07;0.90;;;;;;;10.13;66.98;93954.84;5075086;28;20210;-76
2021/05/25 08:45:30;;;;;;;1.80;0.97;;;;;;;10.01;67.96;93956.41;5074983;28;20267;-76
2021/05/25 08:47:58;;;;;;;3.27;0.80;;;;;;;9.55;68.77;93952.47;5074850;28;20723;-76
2021/05/25 08:50:28;;;;;;;2.20;0.80;;;;;;;9.52;67.60;93957.25;5074957;28;20645;-76
2021/05/25 08:52:56;;;;;;;6.87;1.53;;;;;;;9.85;68.93;93965.31;5075038;28;20202;-75
2021/05/25 08:55:22;;;;;;;4.03;1.10;;;;;;;9.62;70.19;93970.78;5074888;28;20199;-77
2021/05/25 08:57:48;;;;;;;3.17;0.90;;;;;;;9.63;70.65;93973.19;5074896;28;20225;-77
2021/05/25 09:00:16;;;;;;;3.17;0.87;;;;;;;9.51;69.36;93968.69;5074643;28;20654;-76
2021/05/25 09:02:42;;;;;;;4.78;0.90;;;;;;;9.31;69.64;93976.34;5073504;28;20970;-77
2021/05/25 09:05:11;;;;;;;2.47;0.80;;;;;;;9.34;69.50;93989.81;5074664;28;20252;-76
2021/05/25 09:07:40;;;;;;;2.73;0.70;;;;;;;9.14;64.91;93996.63;5074761;28;20217;-77
2021/05/25 09:10:08;;;;;;;1.47;0.63;;;;;;;9.39;68.78;93984.84;5074694;28;20201;-76
2021/05/25 09:12:39;;;;;;;1.33;0.70;;;;;;;9.67;67.47;93981.44;5074517;28;20294;-76
2021/05/25 09:15:07;;;;;;;6.17;1.17;;;;;;;10.12;67.75;93988.94;5074634;28;20205;-76
2021/05/25 09:17:33;;;;;;;2.47;0.90;;;;;;;9.95;66.96;93993.66;5074564;28;20206;-77
2021/05/25 09:20:00;;;;;;;1.53;0.67;;;;;;;10.07;61.69;93975.69;5073880;28;20198;-76
2021/05/25 09:22:33;;;;;;;2.67;0.80;;;;;;;9.52;61.32;94010.19;5074192;28;20276;-77
2021/05/25 09:25:06;;;;;;;4.90;0.90;;;;;;;9.84;64.91;94015.84;5074391;28;20223;-75
2021/05/25 09:27:36;;;;;;;1.67;0.80;;;;;;;9.24;62.52;94012.75;5074131;28;20203;-76
2021/05/25 09:30:17;;;;;;;1.87;0.73;;;;;;;9.25;63.86;94016.97;5074341;28;20236;-75
2021/05/25 09:32:52;;;;;;;4.30;1.00;;;;;;;9.21;62.92;94013.94;5074252;28;20285;-75
2021/05/25 09:35:21;;;;;;;5.67;0.80;;;;;;;9.44;62.99;94011.16;5074095;28;20226;-76
2021/05/25 09:37:50;;;;;;;1.73;0.67;;;;;;;9.43;64.77;94024.34;5073922;28;20203;-76
2021/05/25 09:40:18;;;;;;;4.67;0.63;;;;;;;9.44;64.17;94020.75;5074146;28;20203;-78
2021/05/25 09:42:45;;;;;;;2.73;0.80;;;;;;;9.18;63.07;94016.91;5074100;28;20195;-77
2021/05/25 09:45:13;;;;;;;3.47;0.90;;;;;;;9.12;63.71;94042.88;5074257;28;20249;-76
2021/05/25 09:47:41;;;;;;;4.00;0.80;;;;;;;9.22;64.58;94025.94;5073827;28;20199;-76
2021/05/25 09:50:10;;;;;;;5.57;1.13;;;;;;;9.19;63.65;94041.97;5073866;28;20207;-76
2021/05/25 09:52:36;;;;;;;5.03;1.00;;;;;;;8.99;63.13;94030.53;5073910;28;20561;-76
2021/05/25 09:55:09;;;;;;;4.17;0.90;;;;;;;9.05;63.43;94027.19;5073940;28;20211;-77
2021/05/25 09:57:46;;;;;;;3.60;1.03;;;;;;;9.21;64.60;94032.19;5074001;28;20213;-75
2021/05/25 10:00:33;;;;;;;3.73;0.80;;;;;;;9.52;66.88;94025.03;5073596;28;20206;-77
2021/05/25 10:03:09;;;;;;;3.57;0.63;;;;;;;9.70;63.91;94027.19;5073706;28;20281;-76
2021/05/25 10:05:36;;;;;;;4.87;0.87;;;;;;;9.83;65.76;94037.72;5073706;28;20271;-76
2021/05/25 10:08:03;;;;;;;2.90;0.87;;;;;;;9.62;63.17;94026.31;5073548;28;20205;-76
2021/05/25 10:10:32;;;;;;;2.97;0.80;;;;;;;9.73;62.52;94042.47;5073503;28;20202;-77
2021/05/25 10:12:59;;;;;;;2.90;0.80;;;;;;;9.97;62.63;94028.97;5073265;28;20210;-75
2021/05/25 10:15:27;;;;;;;2.20;0.77;;;;;;;10.38;61.97;94019.63;5073192;28;20206;-76
2021/05/25 10:20:39;;;;;;;2.70;0.90;;;;;;;10.38;61.48;94042.31;5073279;28;20205;-77
2021/05/25 10:23:06;;;;;;;11.80;1.00;;;;;;;10.18;60.45;94050.81;5073073;28;20230;-78
2021/05/25 10:25:36;;;;;;;8.27;1.00;;;;;;;9.84;62.00;94047.13;5073212;28;20290;-78
2021/05/25 10:28:10;;;;;;;4.83;1.00;;;;;;;9.86;61.81;94058.22;5073022;28;20672;-79
2021/05/25 10:30:44;;;;;;;2.77;0.90;;;;;;;10.05;64.08;94055.94;5074826;28;20197;-77
2021/05/25 10:33:28;;;;;;;5.07;1.10;;;;;;;10.07;64.20;94064.38;5072952;28;20757;-77
2021/05/25 10:35:56;;;;;;;4.27;1.00;;;;;;;10.35;65.40;94062.56;5073207;28;20202;-76
2021/05/25 10:38:24;;;;;;;3.13;1.33;;;;;;;11.08;63.07;94046.44;5072967;28;20680;-76
2021/05/25 10:40:53;;;;;;;1.63;0.80;;;;;;;10.99;60.65;94045.00;5073235;28;20204;-76
2021/05/25 10:43:43;;;;;;;3.83;0.90;;;;;;;10.97;62.38;94044.38;5073020;28;20198;-77
2021/05/25 10:46:31;;;;;;;1.87;1.07;;;;;;;10.72;60.33;94060.56;5073227;28;20195;-77
2021/05/25 10:49:08;;;;;;;3.57;0.90;;;;;;;10.67;60.97;94065.53;5073013;28;20201;-76
2021/05/25 10:52:15;;;;;;;2.63;0.80;;;;;;;10.03;62.86;94063.16;5073013;28;20202;-77
2021/05/25 10:54:52;;;;;;;1.27;0.87;;;;;;;10.26;62.87;94062.88;5072836;28;20233;-77
2021/05/25 10:57:36;;;;;;;4.00;1.20;;;;;;;10.12;64.04;94090.69;5073169;28;20194;-77
2021/05/25 11:00:08;;;;;;;5.23;0.87;;;;;;;9.75;62.37;94090.78;5072895;28;20202;-77
2021/05/25 11:02:48;;;;;;;3.97;1.07;;;;;;;10.00;65.12;94090.41;5072936;28;20207;-77
2021/05/25 11:05:55;;;;;;;1.47;0.80;;;;;;;10.65;62.05;94088.44;5072568;28;20226;-77
2021/05/25 11:08:41;;;;;;;3.77;0.97;;;;;;;10.80;61.40;94084.91;5072794;28;20259;-77
2021/05/25 11:11:31;;;;;;;5.90;0.90;;;;;;;10.95;64.01;94082.97;5072670;28;20669;-77
2021/05/25 11:13:58;;;;;;;4.47;0.93;;;;;;;10.97;62.52;94091.41;5057245;28;20264;-77
2021/05/25 11:16:33;;;;;;;1.63;0.70;;;;;;;11.33;65.26;94079.88;5072571;28;20593;-77
2021/05/25 11:19:53;;;;;;;6.37;1.10;;;;;;;11.87;63.16;94085.19;5072633;28;20209;-77
2021/05/25 11:22:35;;;;;;;1.50;0.70;;;;;;;11.15;60.39;94071.78;5072580;28;20199;-77
2021/05/25 11:25:03;;;;;;;5.13;1.00;;;;;;;11.16;60.93;94079.44;5072531;28;20324;-76
2021/05/25 11:27:43;;;;;;;4.70;0.80;;;;;;;11.29;60.66;94083.88;5072705;28;20206;-76
2021/05/25 11:30:14;;;;;;;2.97;0.90;;;;;;;11.41;59.10;94079.69;5072617;28;20293;-77
2021/05/25 11:32:42;;;;;;;1.23;0.70;;;;;;;10.90;56.79;94086.16;5089391;28;20198;-76
2021/05/25 11:35:10;;;;;;;3.33;0.70;;;;;;;10.92;58.24;94105.06;5092805;28;20202;-76
2021/05/25 11:37:38;;;;;;;3.70;0.80;;;;;;;10.63;61.59;94100.91;5092681;28;20545;-77
2021/05/25 11:40:07;;;;;;;4.03;1.10;;;;;;;11.69;59.32;94083.16;5092441;28;20202;-77
2021/05/25 11:42:33;;;;;;;5.40;1.20;;;;;;;12.24;58.77;94096.06;5094600;28;20247;-77
2021/05/25 11:45:00;;;;;;;4.33;1.30;;;;;;;12.29;58.44;94101.50;5096425;28;20233;-76